sensor_id;sensor_type;location;lat;lon;timestamp;temperature;humidity
8269;DHT22;4174;48.304;16.364;2022-07-29T00:03:31;20.80;99.90
8269;DHT22;4174;48.304;16.364;2022-07-29T00:09:34;20.70;99.90
8269;DHT22;4174;48.304;16.364;2022-07-29T00:15:37;20.60;99.90
8269;DHT22;4174;48.304;16.364;2022-07-29T00:21:40;20.50;99.90
8269;DHT22;4174;48.304;16.364;2022-07-29T00:27:43;20.40;99.90
8269;DHT22;4174;48.304;16.364;2022-07-29T00:33:46;20.30;99.90
8269;DHT22;4174;48.304;16.364;2022-07-29T00:39:50;20.00;99.90
8269;DHT22;4174;48.304;16.364;2022-07-29T00:45:53;20.00;99.90
8269;DHT22;4174;48.304;16.364;2022-07-29T00:51:56;20.00;99.90
8269;DHT22;4174;48.304;16.364;2022-07-29T00:57:58;19.90;99.90
8269;DHT22;4174;48.304;16.364;2022-07-29T01:04:01;19.80;99.90
8269;DHT22;4174;48.304;16.364;2022-07-29T01:10:05;19.70;99.90
8269;DHT22;4174;48.304;16.364;2022-07-29T01:16:13;19.50;99.90
8269;DHT22;4174;48.304;16.364;2022-07-29T01:22:20;19.40;99.90
8269;DHT22;4174;48.304;16.364;2022-07-29T01:34:50;19.10;99.90
8269;DHT22;4174;48.304;16.364;2022-07-29T01:41:28;18.90;99.90
8269;DHT22;4174;48.304;16.364;2022-07-29T01:47:15;18.80;99.90
8269;DHT22;4174;48.304;16.364;2022-07-29T01:53:21;18.70;99.90
8269;DHT22;4174;48.304;16.364;2022-07-29T01:59:20;18.50;99.90
8269;DHT22;4174;48.304;16.364;2022-07-29T02:05:23;18.50;99.90
8269;DHT22;4174;48.304;16.364;2022-07-29T02:11:25;18.50;99.90
8269;DHT22;4174;48.304;16.364;2022-07-29T02:17:29;18.40;99.90
8269;DHT22;4174;48.304;16.364;2022-07-29T02:23:46;18.40;99.90
8269;DHT22;4174;48.304;16.364;2022-07-29T02:29:48;18.30;99.90
8269;DHT22;4174;48.304;16.364;2022-07-29T02:35:51;18.20;99.90
8269;DHT22;4174;48.304;16.364;2022-07-29T02:41:56;18.20;99.90
8269;DHT22;4174;48.304;16.364;2022-07-29T02:47:56;18.10;99.90
8269;DHT22;4174;48.304;16.364;2022-07-29T02:53:59;18.00;99.90
8269;DHT22;4174;48.304;16.364;2022-07-29T03:00:03;17.90;99.90
8269;DHT22;4174;48.304;16.364;2022-07-29T03:06:04;17.90;99.90
8269;DHT22;4174;48.304;16.364;2022-07-29T03:12:07;17.80;99.90
8269;DHT22;4174;48.304;16.364;2022-07-29T03:18:09;17.80;99.90
8269;DHT22;4174;48.304;16.364;2022-07-29T03:24:30;17.70;99.90
8269;DHT22;4174;48.304;16.364;2022-07-29T03:30:30;17.60;99.90
8269;DHT22;4174;48.304;16.364;2022-07-29T03:36:33;17.60;99.90
8269;DHT22;4174;48.304;16.364;2022-07-29T03:42:37;17.60;99.90
8269;DHT22;4174;48.304;16.364;2022-07-29T03:48:39;17.60;99.90
8269;DHT22;4174;48.304;16.364;2022-07-29T03:54:40;17.60;99.90
8269;DHT22;4174;48.304;16.364;2022-07-29T04:00:44;17.80;99.90
8269;DHT22;4174;48.304;16.364;2022-07-29T04:06:46;17.70;99.90
8269;DHT22;4174;48.304;16.364;2022-07-29T04:12:50;18.00;99.90
8269;DHT22;4174;48.304;16.364;2022-07-29T04:18:53;17.90;99.90
8269;DHT22;4174;48.304;16.364;2022-07-29T04:24:56;18.10;99.90
8269;DHT22;4174;48.304;16.364;2022-07-29T04:30:59;18.30;99.90
8269;DHT22;4174;48.304;16.364;2022-07-29T04:37:02;18.40;99.90
8269;DHT22;4174;48.304;16.364;2022-07-29T04:43:04;18.50;99.90
8269;DHT22;4174;48.304;16.364;2022-07-29T04:49:07;18.80;99.90
8269;DHT22;4174;48.304;16.364;2022-07-29T04:55:11;22.70;99.90
8269;DHT22;4174;48.304;16.364;2022-07-29T05:01:13;23.10;99.90
8269;DHT22;4174;48.304;16.364;2022-07-29T05:07:17;22.40;99.90
8269;DHT22;4174;48.304;16.364;2022-07-29T05:13:19;22.30;99.90
8269;DHT22;4174;48.304;16.364;2022-07-29T05:19:22;27.60;99.90
8269;DHT22;4174;48.304;16.364;2022-07-29T05:25:26;33.50;81.00
8269;DHT22;4174;48.304;16.364;2022-07-29T05:31:28;33.40;80.80
8269;DHT22;4174;48.304;16.364;2022-07-29T05:37:33;35.70;66.20
8269;DHT22;4174;48.304;16.364;2022-07-29T05:43:35;36.30;61.10
8269;DHT22;4174;48.304;16.364;2022-07-29T05:49:38;35.60;57.30
8269;DHT22;4174;48.304;16.364;2022-07-29T05:55:42;35.50;57.20
8269;DHT22;4174;48.304;16.364;2022-07-29T06:01:44;34.40;58.40
8269;DHT22;4174;48.304;16.364;2022-07-29T06:07:50;36.00;56.80
8269;DHT22;4174;48.304;16.364;2022-07-29T06:13:53;36.00;56.90
8269;DHT22;4174;48.304;16.364;2022-07-29T06:19:56;36.10;56.40
8269;DHT22;4174;48.304;16.364;2022-07-29T06:25:59;35.60;55.60
8269;DHT22;4174;48.304;16.364;2022-07-29T06:32:02;34.60;56.50
8269;DHT22;4174;48.304;16.364;2022-07-29T06:38:04;33.10;58.00
8269;DHT22;4174;48.304;16.364;2022-07-29T06:44:06;31.20;62.60
8269;DHT22;4174;48.304;16.364;2022-07-29T06:50:09;29.70;70.70
8269;DHT22;4174;48.304;16.364;2022-07-29T06:56:12;28.70;77.20
8269;DHT22;4174;48.304;16.364;2022-07-29T07:02:15;27.40;89.60
8269;DHT22;4174;48.304;16.364;2022-07-29T07:08:18;26.40;93.30
8269;DHT22;4174;48.304;16.364;2022-07-29T07:14:21;25.90;98.50
8269;DHT22;4174;48.304;16.364;2022-07-29T07:20:24;25.40;99.50
8269;DHT22;4174;48.304;16.364;2022-07-29T07:26:26;24.90;99.90
8269;DHT22;4174;48.304;16.364;2022-07-29T07:32:29;24.50;99.90
8269;DHT22;4174;48.304;16.364;2022-07-29T07:38:31;24.50;99.90
8269;DHT22;4174;48.304;16.364;2022-07-29T07:44:35;24.80;99.90
8269;DHT22;4174;48.304;16.364;2022-07-29T07:50:38;25.20;99.90
8269;DHT22;4174;48.304;16.364;2022-07-29T07:56:41;25.20;99.90
8269;DHT22;4174;48.304;16.364;2022-07-29T08:02:44;25.60;99.90
8269;DHT22;4174;48.304;16.364;2022-07-29T08:08:47;26.00;99.90
8269;DHT22;4174;48.304;16.364;2022-07-29T08:14:50;26.60;99.90
8269;DHT22;4174;48.304;16.364;2022-07-29T08:20:53;27.10;99.90
8269;DHT22;4174;48.304;16.364;2022-07-29T08:26:56;27.40;99.90
8269;DHT22;4174;48.304;16.364;2022-07-29T08:32:59;28.40;99.90
8269;DHT22;4174;48.304;16.364;2022-07-29T08:39:02;30.30;99.10
8269;DHT22;4174;48.304;16.364;2022-07-29T08:45:05;32.10;92.80
8269;DHT22;4174;48.304;16.364;2022-07-29T08:51:12;33.10;89.10
8269;DHT22;4174;48.304;16.364;2022-07-29T08:57:12;33.50;81.70
8269;DHT22;4174;48.304;16.364;2022-07-29T09:03:15;34.70;81.70
8269;DHT22;4174;48.304;16.364;2022-07-29T09:09:17;35.00;71.40
8269;DHT22;4174;48.304;16.364;2022-07-29T09:15:21;33.90;70.80
8269;DHT22;4174;48.304;16.364;2022-07-29T09:21:25;33.80;70.70
8269;DHT22;4174;48.304;16.364;2022-07-29T09:27:33;32.70;72.80
8269;DHT22;4174;48.304;16.364;2022-07-29T09:33:36;32.10;75.70
8269;DHT22;4174;48.304;16.364;2022-07-29T09:39:40;32.10;78.20
8269;DHT22;4174;48.304;16.364;2022-07-29T09:45:42;32.70;72.10
8269;DHT22;4174;48.304;16.364;2022-07-29T09:51:45;32.60;72.70
8269;DHT22;4174;48.304;16.364;2022-07-29T09:57:48;32.60;72.70
8269;DHT22;4174;48.304;16.364;2022-07-29T10:03:51;33.60;79.10
8269;DHT22;4174;48.304;16.364;2022-07-29T10:09:55;34.20;68.50
8269;DHT22;4174;48.304;16.364;2022-07-29T10:15:56;34.20;68.50
8269;DHT22;4174;48.304;16.364;2022-07-29T10:22:01;34.90;72.10
8269;DHT22;4174;48.304;16.364;2022-07-29T10:28:03;35.40;65.40
8269;DHT22;4174;48.304;16.364;2022-07-29T10:34:11;34.70;62.40
8269;DHT22;4174;48.304;16.364;2022-07-29T10:46:41;34.60;67.90
8269;DHT22;4174;48.304;16.364;2022-07-29T10:52:51;35.80;64.60
8269;DHT22;4174;48.304;16.364;2022-07-29T11:05:14;35.90;57.90
8269;DHT22;4174;48.304;16.364;2022-07-29T11:23:50;36.50;58.30
8269;DHT22;4174;48.304;16.364;2022-07-29T11:29:55;36.70;56.90
8269;DHT22;4174;48.304;16.364;2022-07-29T11:48:36;33.90;61.70
8269;DHT22;4174;48.304;16.364;2022-07-29T11:54:40;33.50;73.00
8269;DHT22;4174;48.304;16.364;2022-07-29T12:00:42;33.40;72.50
8269;DHT22;4174;48.304;16.364;2022-07-29T12:06:48;33.10;71.60
8269;DHT22;4174;48.304;16.364;2022-07-29T12:12:50;32.10;73.50
8269;DHT22;4174;48.304;16.364;2022-07-29T12:18:54;32.10;74.10
8269;DHT22;4174;48.304;16.364;2022-07-29T12:25:01;32.70;73.00
8269;DHT22;4174;48.304;16.364;2022-07-29T12:31:02;32.20;77.60
8269;DHT22;4174;48.304;16.364;2022-07-29T12:37:05;31.90;81.30
8269;DHT22;4174;48.304;16.364;2022-07-29T12:43:11;32.30;80.80
8269;DHT22;4174;48.304;16.364;2022-07-29T12:49:21;32.50;78.00
8269;DHT22;4174;48.304;16.364;2022-07-29T13:01:38;31.70;77.30
8269;DHT22;4174;48.304;16.364;2022-07-29T13:07:41;30.50;86.40
8269;DHT22;4174;48.304;16.364;2022-07-29T13:13:51;29.40;87.00
8269;DHT22;4174;48.304;16.364;2022-07-29T13:19:53;28.90;92.40
8269;DHT22;4174;48.304;16.364;2022-07-29T13:25:54;28.50;94.10
8269;DHT22;4174;48.304;16.364;2022-07-29T13:31:57;28.20;96.10
8269;DHT22;4174;48.304;16.364;2022-07-29T13:38:01;27.60;98.90
8269;DHT22;4174;48.304;16.364;2022-07-29T13:44:04;27.50;98.90
8269;DHT22;4174;48.304;16.364;2022-07-29T13:50:07;27.20;99.90
8269;DHT22;4174;48.304;16.364;2022-07-29T13:56:12;26.50;99.90
8269;DHT22;4174;48.304;16.364;2022-07-29T14:02:15;26.10;99.90
8269;DHT22;4174;48.304;16.364;2022-07-29T14:08:18;25.40;99.90
8269;DHT22;4174;48.304;16.364;2022-07-29T14:14:21;25.40;99.90
8269;DHT22;4174;48.304;16.364;2022-07-29T14:20:24;25.20;99.90
8269;DHT22;4174;48.304;16.364;2022-07-29T14:26:27;24.80;99.90
8269;DHT22;4174;48.304;16.364;2022-07-29T14:32:30;24.40;99.90
8269;DHT22;4174;48.304;16.364;2022-07-29T14:38:34;24.00;99.90
8269;DHT22;4174;48.304;16.364;2022-07-29T14:44:36;23.70;99.90
8269;DHT22;4174;48.304;16.364;2022-07-29T14:50:39;23.30;99.90
8269;DHT22;4174;48.304;16.364;2022-07-29T14:56:42;23.10;99.90
8269;DHT22;4174;48.304;16.364;2022-07-29T15:02:45;23.00;99.90
8269;DHT22;4174;48.304;16.364;2022-07-29T15:08:48;22.80;99.90
8269;DHT22;4174;48.304;16.364;2022-07-29T15:14:51;22.80;99.90
8269;DHT22;4174;48.304;16.364;2022-07-29T15:20:54;22.70;99.90
8269;DHT22;4174;48.304;16.364;2022-07-29T15:26:57;22.70;99.90
8269;DHT22;4174;48.304;16.364;2022-07-29T15:33:00;22.70;99.90
8269;DHT22;4174;48.304;16.364;2022-07-29T15:39:02;22.70;99.90
8269;DHT22;4174;48.304;16.364;2022-07-29T15:45:06;22.70;99.90
8269;DHT22;4174;48.304;16.364;2022-07-29T15:51:10;22.70;99.90
8269;DHT22;4174;48.304;16.364;2022-07-29T15:57:14;22.90;99.90
8269;DHT22;4174;48.304;16.364;2022-07-29T16:03:17;22.90;99.90
8269;DHT22;4174;48.304;16.364;2022-07-29T16:09:21;22.90;99.90
8269;DHT22;4174;48.304;16.364;2022-07-29T16:15:24;22.90;99.90
8269;DHT22;4174;48.304;16.364;2022-07-29T16:21:27;23.00;99.90
8269;DHT22;4174;48.304;16.364;2022-07-29T16:27:30;22.90;99.90
8269;DHT22;4174;48.304;16.364;2022-07-29T16:33:33;23.00;99.90
8269;DHT22;4174;48.304;16.364;2022-07-29T16:39:35;23.20;99.90
8269;DHT22;4174;48.304;16.364;2022-07-29T16:45:38;23.10;99.90
8269;DHT22;4174;48.304;16.364;2022-07-29T16:51:41;23.40;99.90
8269;DHT22;4174;48.304;16.364;2022-07-29T16:57:44;23.60;99.90
8269;DHT22;4174;48.304;16.364;2022-07-29T17:03:46;23.60;99.90
8269;DHT22;4174;48.304;16.364;2022-07-29T17:09:55;23.50;99.90
8269;DHT22;4174;48.304;16.364;2022-07-29T17:15:58;23.50;99.90
8269;DHT22;4174;48.304;16.364;2022-07-29T17:22:02;23.40;99.90
8269;DHT22;4174;48.304;16.364;2022-07-29T17:28:03;23.40;99.90
8269;DHT22;4174;48.304;16.364;2022-07-29T17:34:06;23.30;99.90
8269;DHT22;4174;48.304;16.364;2022-07-29T17:40:10;23.20;99.90
8269;DHT22;4174;48.304;16.364;2022-07-29T17:46:14;23.10;99.90
8269;DHT22;4174;48.304;16.364;2022-07-29T17:52:17;23.10;99.90
8269;DHT22;4174;48.304;16.364;2022-07-29T17:58:20;23.00;99.90
8269;DHT22;4174;48.304;16.364;2022-07-29T18:04:22;22.90;99.90
8269;DHT22;4174;48.304;16.364;2022-07-29T18:10:25;22.70;99.90
8269;DHT22;4174;48.304;16.364;2022-07-29T18:16:27;22.70;99.90
8269;DHT22;4174;48.304;16.364;2022-07-29T18:22:30;22.60;99.90
8269;DHT22;4174;48.304;16.364;2022-07-29T18:28:33;22.40;99.90
8269;DHT22;4174;48.304;16.364;2022-07-29T18:34:36;22.20;99.90
8269;DHT22;4174;48.304;16.364;2022-07-29T18:40:39;22.00;99.90
8269;DHT22;4174;48.304;16.364;2022-07-29T18:46:42;21.70;99.90
8269;DHT22;4174;48.304;16.364;2022-07-29T18:52:44;21.70;99.90
8269;DHT22;4174;48.304;16.364;2022-07-29T18:58:47;21.60;99.90
8269;DHT22;4174;48.304;16.364;2022-07-29T19:04:49;21.50;99.90
8269;DHT22;4174;48.304;16.364;2022-07-29T19:10:52;21.40;99.90
8269;DHT22;4174;48.304;16.364;2022-07-29T19:16:55;21.30;99.90
8269;DHT22;4174;48.304;16.364;2022-07-29T19:22:58;21.20;99.90
8269;DHT22;4174;48.304;16.364;2022-07-29T19:29:00;21.10;99.90
8269;DHT22;4174;48.304;16.364;2022-07-29T19:35:02;21.00;99.90
8269;DHT22;4174;48.304;16.364;2022-07-29T19:41:10;20.90;99.90
8269;DHT22;4174;48.304;16.364;2022-07-29T19:47:12;20.70;99.90
8269;DHT22;4174;48.304;16.364;2022-07-29T19:53:15;20.50;99.90
8269;DHT22;4174;48.304;16.364;2022-07-29T19:59:18;20.40;99.90
8269;DHT22;4174;48.304;16.364;2022-07-29T20:05:21;20.30;99.90
8269;DHT22;4174;48.304;16.364;2022-07-29T20:11:23;20.30;99.90
8269;DHT22;4174;48.304;16.364;2022-07-29T20:17:26;20.20;99.90
8269;DHT22;4174;48.304;16.364;2022-07-29T20:23:30;20.10;99.90
8269;DHT22;4174;48.304;16.364;2022-07-29T20:29:33;20.00;99.90
8269;DHT22;4174;48.304;16.364;2022-07-29T20:35:35;19.90;99.90
8269;DHT22;4174;48.304;16.364;2022-07-29T20:41:38;19.90;99.90
8269;DHT22;4174;48.304;16.364;2022-07-29T20:47:41;19.80;99.90
8269;DHT22;4174;48.304;16.364;2022-07-29T20:53:44;19.70;99.90
8269;DHT22;4174;48.304;16.364;2022-07-29T20:59:46;19.70;99.90
8269;DHT22;4174;48.304;16.364;2022-07-29T21:05:49;19.60;99.90
8269;DHT22;4174;48.304;16.364;2022-07-29T21:11:51;19.60;99.90
8269;DHT22;4174;48.304;16.364;2022-07-29T21:17:55;19.50;99.90
8269;DHT22;4174;48.304;16.364;2022-07-29T21:23:59;19.50;99.90
8269;DHT22;4174;48.304;16.364;2022-07-29T21:30:03;19.40;99.90
8269;DHT22;4174;48.304;16.364;2022-07-29T21:36:08;19.40;99.90
8269;DHT22;4174;48.304;16.364;2022-07-29T21:42:10;19.30;99.90
8269;DHT22;4174;48.304;16.364;2022-07-29T21:48:15;19.30;99.90
8269;DHT22;4174;48.304;16.364;2022-07-29T21:54:17;19.30;99.90
8269;DHT22;4174;48.304;16.364;2022-07-29T22:00:20;19.30;99.90
8269;DHT22;4174;48.304;16.364;2022-07-29T22:06:22;19.20;99.90
8269;DHT22;4174;48.304;16.364;2022-07-29T22:12:26;19.10;99.90
8269;DHT22;4174;48.304;16.364;2022-07-29T22:18:28;19.10;99.90
8269;DHT22;4174;48.304;16.364;2022-07-29T22:24:30;19.10;99.90
8269;DHT22;4174;48.304;16.364;2022-07-29T22:30:33;19.10;99.90
8269;DHT22;4174;48.304;16.364;2022-07-29T22:36:38;18.90;99.90
8269;DHT22;4174;48.304;16.364;2022-07-29T22:42:40;18.90;99.90
8269;DHT22;4174;48.304;16.364;2022-07-29T22:48:43;19.00;99.90
8269;DHT22;4174;48.304;16.364;2022-07-29T22:54:47;19.00;99.90
8269;DHT22;4174;48.304;16.364;2022-07-29T23:00:51;18.90;99.90
8269;DHT22;4174;48.304;16.364;2022-07-29T23:06:54;18.90;99.90
8269;DHT22;4174;48.304;16.364;2022-07-29T23:12:56;18.90;99.90
8269;DHT22;4174;48.304;16.364;2022-07-29T23:18:59;19.00;99.90
8269;DHT22;4174;48.304;16.364;2022-07-29T23:25:02;19.00;99.90
8269;DHT22;4174;48.304;16.364;2022-07-29T23:31:05;19.10;99.90
8269;DHT22;4174;48.304;16.364;2022-07-29T23:37:09;19.10;99.90
8269;DHT22;4174;48.304;16.364;2022-07-29T23:43:12;19.10;99.90
8269;DHT22;4174;48.304;16.364;2022-07-29T23:49:16;19.20;99.90
8269;DHT22;4174;48.304;16.364;2022-07-29T23:55:21;19.20;99.90
